Time;durP1;ratioP1;P1;durP2;ratioP2;P2;SDS_P1;SDS_P2;PMS_P1;PMS_P2;Temp;Humidity;BMP_temperature;BMP_pressure;BME280_temperature;BME280_humidity;BME280_pressure;Samples;Min_cycle;Max_cycle;Signal;HPM_P1;HPM_P2
2023/12/10 00:00:17;;;;;;;18.30;9.48;;;;;;;;;;5066640;28;20040;-61
2023/12/10 00:02:43;;;;;;;19.10;10.88;;;;;;;;;;5066808;28;20036;-63
2023/12/10 00:05:09;;;;;;;14.10;8.48;;;;;;;;;;5066439;28;20036;-62
2023/12/10 00:07:35;;;;;;;12.60;7.20;;;;;;;;;;5066634;28;20701;-60
2023/12/10 00:10:01;;;;;;;24.90;10.45;;;;;;;;;;5066149;28;20039;-59
2023/12/10 00:12:27;;;;;;;12.10;7.15;;;;;;;;;;5066164;28;20693;-61
2023/12/10 00:14:54;;;;;;;31.90;9.82;;;;;;;;;;5066533;28;20032;-63
2023/12/10 00:17:22;;;;;;;11.35;6.90;;;;;;;;;;5066663;28;20031;-62
2023/12/10 00:19:48;;;;;;;12.52;6.90;;;;;;;;;;5048641;28;20036;-62
2023/12/10 00:22:14;;;;;;;14.73;7.15;;;;;;;;;;5066358;28;20143;-62
2023/12/10 00:24:42;;;;;;;14.45;6.50;;;;;;;;;;5048415;28;20076;-59
2023/12/10 00:27:08;;;;;;;16.20;7.32;;;;;;;;;;5065177;28;20036;-62
2023/12/10 00:29:34;;;;;;;16.15;7.13;;;;;;;;;;5065955;28;20040;-62
2023/12/10 00:32:00;;;;;;;11.48;6.80;;;;;;;;;;5065919;28;20027;-62
2023/12/10 00:34:26;;;;;;;18.73;8.60;;;;;;;;;;5066622;28;20021;-61
2023/12/10 00:36:53;;;;;;;22.30;7.97;;;;;;;;;;5067836;28;20028;-60
2023/12/10 00:39:19;;;;;;;10.55;6.10;;;;;;;;;;5069088;28;20032;-62
2023/12/10 00:41:46;;;;;;;30.92;8.48;;;;;;;;;;5069011;28;20037;-61
2023/12/10 00:44:12;;;;;;;17.95;8.50;;;;;;;;;;5067815;28;20025;-61
2023/12/10 00:46:38;;;;;;;13.77;7.38;;;;;;;;;;5069266;28;20104;-62
2023/12/10 00:49:04;;;;;;;10.90;6.63;;;;;;;;;;5068926;28;20029;-61
2023/12/10 00:51:30;;;;;;;14.60;7.15;;;;;;;;;;5068629;28;20024;-61
2023/12/10 00:53:56;;;;;;;16.58;6.70;;;;;;;;;;5068719;28;20100;-62
2023/12/10 00:56:22;;;;;;;11.48;6.30;;;;;;;;;;5068749;28;20494;-59
2023/12/10 00:58:48;;;;;;;10.80;6.20;;;;;;;;;;5068732;28;20081;-63
2023/12/10 01:01:14;;;;;;;12.60;7.85;;;;;;;;;;5068754;28;20103;-62
2023/12/10 01:03:40;;;;;;;40.85;9.23;;;;;;;;;;5068992;28;20453;-62
2023/12/10 01:06:09;;;;;;;11.93;7.10;;;;;;;;;;5051020;28;20077;-63
2023/12/10 01:08:35;;;;;;;14.15;7.22;;;;;;;;;;5050997;28;20032;-62
2023/12/10 01:11:01;;;;;;;22.17;8.18;;;;;;;;;;5068809;28;20036;-62
2023/12/10 01:13:27;;;;;;;14.20;6.75;;;;;;;;;;5068872;28;20033;-60
2023/12/10 01:15:54;;;;;;;16.75;8.00;;;;;;;;;;5069184;28;20025;-62
2023/12/10 01:18:20;;;;;;;14.00;6.95;;;;;;;;;;5069353;28;20386;-62
2023/12/10 01:20:46;;;;;;;13.93;6.30;;;;;;;;;;5069302;28;20032;-62
2023/12/10 01:23:14;;;;;;;10.73;6.30;;;;;;;;;;5051294;28;20026;-62
2023/12/10 01:25:40;;;;;;;11.63;7.00;;;;;;;;;;5069429;28;20086;-62
2023/12/10 01:28:06;;;;;;;11.95;7.25;;;;;;;;;;5051206;28;20086;-62
2023/12/10 01:30:32;;;;;;;22.98;6.82;;;;;;;;;;5068745;28;20035;-61
2023/12/10 01:32:59;;;;;;;14.85;10.40;;;;;;;;;;5069321;28;20024;-63
2023/12/10 01:35:25;;;;;;;11.65;6.38;;;;;;;;;;5068942;28;20024;-63
2023/12/10 01:37:51;;;;;;;15.70;7.25;;;;;;;;;;5070796;28;20103;-62
2023/12/10 01:40:19;;;;;;;16.73;7.78;;;;;;;;;;5072556;28;20101;-62
2023/12/10 01:42:45;;;;;;;15.03;7.83;;;;;;;;;;5072959;28;20146;-62
2023/12/10 01:45:11;;;;;;;11.77;6.78;;;;;;;;;;5071988;28;20060;-63
2023/12/10 01:47:47;;;;;;;12.88;7.88;;;;;;;;;;5055279;28;20025;-62
2023/12/10 01:50:13;;;;;;;12.48;7.35;;;;;;;;;;5052297;28;20031;-62
2023/12/10 01:52:41;;;;;;;15.40;7.78;;;;;;;;;;5057182;28;20016;-61
2023/12/10 01:55:10;;;;;;;19.27;8.02;;;;;;;;;;5056424;28;20718;-62
2023/12/10 01:57:37;;;;;;;10.75;6.20;;;;;;;;;;5064449;28;20111;-62
2023/12/10 02:00:07;;;;;;;23.70;8.20;;;;;;;;;;5072386;28;20160;-61
2023/12/10 02:02:37;;;;;;;22.27;9.85;;;;;;;;;;5071890;28;20017;-61
2023/12/10 02:05:07;;;;;;;15.07;7.25;;;;;;;;;;5054181;28;20035;-62
2023/12/10 02:07:33;;;;;;;24.73;9.40;;;;;;;;;;5069119;28;20387;-61
2023/12/10 02:09:59;;;;;;;19.25;9.50;;;;;;;;;;5052368;28;20111;-62
2023/12/10 02:12:27;;;;;;;14.60;7.57;;;;;;;;;;5062000;28;20597;-61
2023/12/10 02:14:53;;;;;;;26.05;10.98;;;;;;;;;;5058374;28;20038;-61
2023/12/10 02:17:19;;;;;;;16.55;8.35;;;;;;;;;;5052129;28;20063;-62
2023/12/10 02:19:45;;;;;;;22.52;8.52;;;;;;;;;;5052367;28;20671;-60
2023/12/10 02:22:13;;;;;;;18.10;8.30;;;;;;;;;;5050402;28;20043;-62
2023/12/10 02:24:44;;;;;;;11.75;6.72;;;;;;;;;;5052554;28;20129;-63
2023/12/10 02:27:11;;;;;;;18.73;6.97;;;;;;;;;;5042439;28;20080;-62
2023/12/10 02:29:37;;;;;;;14.82;7.20;;;;;;;;;;5051968;28;20544;-60
2023/12/10 02:32:03;;;;;;;12.00;6.70;;;;;;;;;;5051791;28;20086;-61
2023/12/10 02:34:29;;;;;;;12.57;6.88;;;;;;;;;;5051909;28;20029;-61
2023/12/10 02:36:55;;;;;;;21.95;8.57;;;;;;;;;;5051815;28;20020;-62
2023/12/10 02:39:21;;;;;;;19.25;8.38;;;;;;;;;;5051828;28;20388;-63
2023/12/10 02:41:47;;;;;;;25.80;8.63;;;;;;;;;;5051488;28;20029;-60
2023/12/10 02:44:13;;;;;;;15.20;7.60;;;;;;;;;;5051792;28;20033;-62
2023/12/10 02:46:43;;;;;;;17.58;7.53;;;;;;;;;;5051589;28;20118;-63
2023/12/10 02:49:09;;;;;;;17.33;8.05;;;;;;;;;;5050502;28;20455;-62
2023/12/10 02:51:35;;;;;;;30.65;10.20;;;;;;;;;;5051362;28;20471;-62
2023/12/10 02:54:01;;;;;;;22.60;8.32;;;;;;;;;;5033566;28;20056;-63
2023/12/10 02:56:27;;;;;;;16.23;8.77;;;;;;;;;;5051538;28;20025;-63
2023/12/10 02:58:53;;;;;;;19.95;9.00;;;;;;;;;;5033635;28;20021;-62
2023/12/10 03:01:19;;;;;;;15.13;7.82;;;;;;;;;;5051333;28;20081;-63
2023/12/10 03:03:45;;;;;;;13.73;8.07;;;;;;;;;;5051305;28;20017;-63
2023/12/10 03:06:11;;;;;;;18.75;10.60;;;;;;;;;;5051422;28;20020;-62
2023/12/10 03:08:37;;;;;;;13.45;7.75;;;;;;;;;;5051185;28;20025;-63
2023/12/10 03:11:03;;;;;;;14.63;8.85;;;;;;;;;;5050816;28;20406;-63
2023/12/10 03:13:29;;;;;;;15.45;9.07;;;;;;;;;;5051185;28;20098;-63
2023/12/10 03:15:55;;;;;;;15.75;8.77;;;;;;;;;;5050972;28;20472;-63
2023/12/10 03:18:21;;;;;;;24.33;11.68;;;;;;;;;;5033228;28;20071;-62
2023/12/10 03:20:47;;;;;;;21.70;18.40;;;;;;;;;;5050671;28;20078;-61
2023/12/10 03:23:13;;;;;;;22.90;20.45;;;;;;;;;;5068909;28;20036;-60
2023/12/10 03:25:39;;;;;;;25.42;22.75;;;;;;;;;;5070651;28;20020;-60
2023/12/10 03:28:05;;;;;;;24.73;22.52;;;;;;;;;;5070709;28;20052;-62
2023/12/10 03:30:31;;;;;;;30.52;27.95;;;;;;;;;;5070121;28;20390;-63
2023/12/10 03:32:57;;;;;;;30.98;28.23;;;;;;;;;;5052387;28;20023;-61
2023/12/10 03:35:23;;;;;;;37.30;33.80;;;;;;;;;;5070372;28;20039;-62
2023/12/10 03:37:49;;;;;;;37.47;34.47;;;;;;;;;;5070544;28;20099;-60
2023/12/10 03:40:16;;;;;;;42.42;38.53;;;;;;;;;;5070082;28;20170;-60
2023/12/10 03:42:41;;;;;;;39.70;36.25;;;;;;;;;;5070201;28;20077;-61
2023/12/10 03:45:08;;;;;;;41.42;38.03;;;;;;;;;;5070136;28;20052;-60
2023/12/10 03:47:34;;;;;;;43.17;38.63;;;;;;;;;;5070123;28;20078;-60
2023/12/10 03:50:00;;;;;;;40.10;36.65;;;;;;;;;;5052464;28;20081;-61
2023/12/10 03:52:26;;;;;;;38.75;35.65;;;;;;;;;;5069833;28;20108;-61
2023/12/10 03:54:52;;;;;;;38.72;35.33;;;;;;;;;;5070213;28;20043;-61
2023/12/10 03:57:18;;;;;;;39.10;35.90;;;;;;;;;;5070019;28;20017;-62
2023/12/10 03:59:44;;;;;;;39.53;36.33;;;;;;;;;;5052088;28;20077;-60
2023/12/10 04:02:10;;;;;;;40.60;37.30;;;;;;;;;;5069962;28;20631;-59
2023/12/10 04:04:36;;;;;;;40.38;36.83;;;;;;;;;;5070418;28;20029;-62
2023/12/10 04:07:02;;;;;;;38.70;35.38;;;;;;;;;;5070760;28;20390;-60
2023/12/10 04:09:29;;;;;;;39.45;35.55;;;;;;;;;;5071416;28;20371;-57
2023/12/10 04:11:59;;;;;;;36.28;33.28;;;;;;;;;;5070552;28;20031;-59
2023/12/10 04:14:25;;;;;;;37.55;34.28;;;;;;;;;;5111012;22;20690;-50
2023/12/10 04:16:51;;;;;;;34.78;31.88;;;;;;;;;;5091494;28;20644;-48
2023/12/10 04:19:17;;;;;;;36.75;33.75;;;;;;;;;;5090302;28;20031;-49
2023/12/10 04:21:43;;;;;;;35.70;32.90;;;;;;;;;;5091170;28;20564;-51
2023/12/10 04:24:09;;;;;;;37.22;34.10;;;;;;;;;;5091247;28;20055;-48
2023/12/10 04:26:35;;;;;;;34.88;32.08;;;;;;;;;;5091336;28;20028;-48
2023/12/10 04:29:01;;;;;;;39.22;35.95;;;;;;;;;;5091269;28;20034;-47
2023/12/10 04:31:27;;;;;;;38.50;35.50;;;;;;;;;;5090966;28;20024;-48
2023/12/10 04:33:53;;;;;;;37.17;34.08;;;;;;;;;;5090915;28;20024;-49
2023/12/10 04:36:19;;;;;;;36.00;32.90;;;;;;;;;;5091221;28;20027;-47
2023/12/10 04:38:46;;;;;;;36.70;33.20;;;;;;;;;;5091667;28;20405;-51
2023/12/10 04:41:12;;;;;;;36.80;33.10;;;;;;;;;;5091242;28;20024;-48
2023/12/10 04:43:38;;;;;;;34.65;31.70;;;;;;;;;;5090812;28;20024;-53
2023/12/10 04:46:05;;;;;;;36.03;32.42;;;;;;;;;;5090803;28;20132;-52
2023/12/10 04:48:31;;;;;;;33.80;30.90;;;;;;;;;;5090918;28;20493;-48
2023/12/10 04:50:57;;;;;;;35.25;31.83;;;;;;;;;;5090704;28;20039;-54
2023/12/10 04:53:23;;;;;;;34.63;31.55;;;;;;;;;;5090785;28;20031;-51
2023/12/10 04:55:49;;;;;;;32.78;27.23;;;;;;;;;;5090676;28;20017;-49
2023/12/10 04:58:15;;;;;;;28.88;26.58;;;;;;;;;;5089376;28;20418;-52
2023/12/10 05:00:41;;;;;;;30.23;27.38;;;;;;;;;;5089478;28;20031;-53
2023/12/10 05:03:07;;;;;;;28.17;25.63;;;;;;;;;;5090712;28;20550;-49
2023/12/10 05:05:33;;;;;;;27.25;25.02;;;;;;;;;;5090875;28;20028;-50
2023/12/10 05:07:59;;;;;;;26.08;23.88;;;;;;;;;;5090835;28;20070;-55
2023/12/10 05:10:25;;;;;;;28.05;25.45;;;;;;;;;;5090450;28;20371;-53
2023/12/10 05:12:51;;;;;;;27.38;24.85;;;;;;;;;;5089709;28;20084;-50
2023/12/10 05:15:17;;;;;;;28.02;25.23;;;;;;;;;;5090795;28;20031;-49
2023/12/10 05:17:43;;;;;;;27.58;24.90;;;;;;;;;;5090531;28;20024;-52
2023/12/10 05:20:09;;;;;;;26.50;24.20;;;;;;;;;;5089009;28;20020;-48
2023/12/10 05:22:35;;;;;;;27.50;25.05;;;;;;;;;;5090509;28;20082;-48
2023/12/10 05:25:03;;;;;;;26.30;24.10;;;;;;;;;;5090472;28;20028;-49
2023/12/10 05:27:32;;;;;;;29.00;26.60;;;;;;;;;;5090339;28;20099;-53
2023/12/10 05:29:58;;;;;;;31.45;28.95;;;;;;;;;;5090247;28;20032;-49
2023/12/10 05:32:24;;;;;;;33.40;30.30;;;;;;;;;;5088928;28;20024;-52
2023/12/10 05:34:51;;;;;;;35.10;31.75;;;;;;;;;;5090636;28;20504;-52
2023/12/10 05:37:17;;;;;;;33.17;30.63;;;;;;;;;;5090507;28;20444;-51
2023/12/10 05:39:43;;;;;;;32.70;30.10;;;;;;;;;;5090195;28;20439;-54
2023/12/10 05:42:09;;;;;;;34.03;31.08;;;;;;;;;;5088893;28;20056;-53
2023/12/10 05:44:35;;;;;;;37.25;33.80;;;;;;;;;;5090384;28;20398;-50
2023/12/10 05:47:02;;;;;;;37.15;33.92;;;;;;;;;;5090316;28;20032;-50
2023/12/10 05:49:29;;;;;;;32.78;30.17;;;;;;;;;;5089564;28;20028;-55
2023/12/10 05:51:55;;;;;;;31.40;28.90;;;;;;;;;;5090924;28;20039;-55
2023/12/10 05:54:21;;;;;;;32.15;29.65;;;;;;;;;;5091187;28;20025;-51
2023/12/10 05:56:47;;;;;;;31.40;28.90;;;;;;;;;;5090166;28;20035;-50
2023/12/10 05:59:14;;;;;;;32.22;29.73;;;;;;;;;;5090336;28;20031;-52
2023/12/10 06:01:41;;;;;;;32.55;30.05;;;;;;;;;;5079571;28;20091;-53
2023/12/10 06:04:07;;;;;;;31.45;28.95;;;;;;;;;;5085654;28;20110;-53
2023/12/10 06:06:33;;;;;;;32.15;29.65;;;;;;;;;;5088451;28;20024;-53
2023/12/10 06:08:59;;;;;;;32.40;29.90;;;;;;;;;;5088221;28;20497;-52
2023/12/10 06:11:25;;;;;;;31.08;28.67;;;;;;;;;;5089506;28;20024;-52
2023/12/10 06:13:51;;;;;;;31.80;29.30;;;;;;;;;;5088153;28;20100;-50
2023/12/10 06:16:17;;;;;;;30.30;27.90;;;;;;;;;;5079178;28;20509;-55
2023/12/10 06:18:43;;;;;;;29.30;27.00;;;;;;;;;;5068243;28;20086;-52
2023/12/10 06:21:09;;;;;;;29.77;27.38;;;;;;;;;;5069665;28;20111;-53
2023/12/10 06:23:35;;;;;;;29.33;27.02;;;;;;;;;;5071205;28;20056;-51
2023/12/10 06:26:01;;;;;;;28.10;25.80;;;;;;;;;;5072383;28;20046;-50
2023/12/10 06:28:27;;;;;;;27.10;24.90;;;;;;;;;;5071829;28;20025;-50
2023/12/10 06:30:53;;;;;;;25.95;23.85;;;;;;;;;;5071790;28;20024;-50
2023/12/10 06:33:19;;;;;;;25.85;23.75;;;;;;;;;;5073577;28;20035;-54
2023/12/10 06:35:45;;;;;;;26.55;24.35;;;;;;;;;;5073259;28;20025;-52
2023/12/10 06:38:11;;;;;;;27.17;24.98;;;;;;;;;;5073029;28;20087;-47
2023/12/10 06:40:37;;;;;;;27.90;25.60;;;;;;;;;;5072777;28;20039;-52
2023/12/10 06:43:03;;;;;;;28.55;26.25;;;;;;;;;;5072837;28;20031;-50
2023/12/10 06:45:29;;;;;;;29.80;27.40;;;;;;;;;;5072947;28;20474;-51
2023/12/10 06:47:55;;;;;;;29.35;27.05;;;;;;;;;;5073220;28;20386;-52
2023/12/10 06:50:21;;;;;;;29.15;26.85;;;;;;;;;;5072516;28;20435;-51
2023/12/10 06:52:47;;;;;;;29.33;27.02;;;;;;;;;;5086138;28;20040;-54
2023/12/10 06:55:13;;;;;;;28.40;26.10;;;;;;;;;;5075888;28;20024;-50
2023/12/10 06:57:39;;;;;;;28.30;26.00;;;;;;;;;;5073520;28;20021;-52
2023/12/10 07:00:06;;;;;;;28.98;26.67;;;;;;;;;;5080955;28;20028;-50
2023/12/10 07:02:32;;;;;;;28.77;26.48;;;;;;;;;;5091872;28;20031;-48
2023/12/10 07:04:58;;;;;;;28.92;26.63;;;;;;;;;;5091693;28;20023;-51
2023/12/10 07:07:24;;;;;;;28.58;26.27;;;;;;;;;;5092790;28;20028;-52
2023/12/10 07:09:50;;;;;;;27.13;24.92;;;;;;;;;;5091256;28;20024;-54
2023/12/10 07:12:16;;;;;;;25.30;23.20;;;;;;;;;;5090980;28;20135;-48
2023/12/10 07:14:42;;;;;;;24.17;22.17;;;;;;;;;;5085090;28;20020;-55
2023/12/10 07:17:08;;;;;;;23.65;21.65;;;;;;;;;;5076372;28;20077;-52
2023/12/10 07:19:34;;;;;;;24.20;22.20;;;;;;;;;;5075225;28;20051;-55
2023/12/10 07:22:00;;;;;;;25.25;23.15;;;;;;;;;;5085405;28;20027;-48
2023/12/10 07:24:27;;;;;;;26.77;24.58;;;;;;;;;;5070729;28;20024;-54
2023/12/10 07:26:53;;;;;;;27.42;25.23;;;;;;;;;;5072040;28;20028;-54
2023/12/10 07:29:19;;;;;;;26.73;24.52;;;;;;;;;;5080315;28;20556;-52
2023/12/10 07:31:45;;;;;;;36.33;27.67;;;;;;;;;;5071651;28;20067;-49
2023/12/10 07:34:11;;;;;;;27.67;25.17;;;;;;;;;;5070636;28;20082;-51
2023/12/10 07:36:37;;;;;;;28.35;25.73;;;;;;;;;;5071181;28;20519;-51
2023/12/10 07:39:03;;;;;;;28.50;26.00;;;;;;;;;;5071802;28;20055;-52
2023/12/10 07:41:29;;;;;;;28.60;26.10;;;;;;;;;;5071647;28;20029;-52
2023/12/10 07:43:55;;;;;;;27.35;25.05;;;;;;;;;;5071701;28;20019;-54
2023/12/10 07:46:21;;;;;;;35.00;24.80;;;;;;;;;;5071703;28;20023;-52
2023/12/10 07:48:47;;;;;;;24.80;22.70;;;;;;;;;;5071728;28;20100;-54
2023/12/10 07:51:13;;;;;;;24.92;22.73;;;;;;;;;;5071393;28;20060;-54
2023/12/10 07:53:41;;;;;;;23.80;21.40;;;;;;;;;;5071815;28;20521;-53
2023/12/10 07:56:08;;;;;;;23.10;20.70;;;;;;;;;;5071705;28;20134;-51
2023/12/10 07:58:34;;;;;;;27.85;20.90;;;;;;;;;;5071269;28;20021;-50
2023/12/10 08:01:00;;;;;;;23.90;20.73;;;;;;;;;;5071249;28;20020;-50
2023/12/10 08:03:26;;;;;;;21.10;19.00;;;;;;;;;;5071208;28;20028;-53
2023/12/10 08:05:53;;;;;;;22.40;20.10;;;;;;;;;;5076146;28;20024;-50
2023/12/10 08:08:19;;;;;;;22.98;20.63;;;;;;;;;;5083294;28;20080;-51
2023/12/10 08:10:46;;;;;;;21.73;19.48;;;;;;;;;;5091368;28;20024;-52
2023/12/10 08:13:12;;;;;;;23.48;18.77;;;;;;;;;;5091586;28;20028;-54
2023/12/10 08:15:38;;;;;;;23.45;18.38;;;;;;;;;;5091506;28;20031;-54
2023/12/10 08:18:04;;;;;;;30.77;18.23;;;;;;;;;;5090377;28;20020;-53
2023/12/10 08:20:30;;;;;;;16.98;14.95;;;;;;;;;;5091278;28;20028;-51
2023/12/10 08:22:56;;;;;;;16.45;11.50;;;;;;;;;;5091360;28;20438;-55
2023/12/10 08:25:22;;;;;;;18.02;11.43;;;;;;;;;;5091499;28;20028;-53
2023/12/10 08:27:48;;;;;;;14.45;8.52;;;;;;;;;;5091967;28;20074;-53
2023/12/10 08:30:14;;;;;;;16.52;7.43;;;;;;;;;;5091060;28;20036;-53
2023/12/10 08:32:40;;;;;;;14.70;8.43;;;;;;;;;;5091278;28;20044;-48
2023/12/10 08:35:07;;;;;;;17.73;8.68;;;;;;;;;;5091245;28;20155;-50
2023/12/10 08:37:33;;;;;;;26.02;8.98;;;;;;;;;;5090059;28;20026;-53
2023/12/10 08:39:59;;;;;;;28.20;9.85;;;;;;;;;;5091240;28;20031;-58
2023/12/10 08:42:27;;;;;;;16.40;9.02;;;;;;;;;;5090593;28;20081;-55
2023/12/10 08:44:53;;;;;;;13.18;7.10;;;;;;;;;;5091364;28;20104;-54
2023/12/10 08:47:19;;;;;;;13.10;7.40;;;;;;;;;;5090425;28;20458;-53
2023/12/10 08:49:45;;;;;;;20.48;10.18;;;;;;;;;;5090913;28;20051;-54
2023/12/10 08:52:11;;;;;;;13.73;7.40;;;;;;;;;;5091041;28;20024;-57
2023/12/10 08:54:37;;;;;;;13.43;8.80;;;;;;;;;;5091062;28;20122;-57
2023/12/10 08:57:03;;;;;;;21.20;7.38;;;;;;;;;;5091091;28;20024;-55
2023/12/10 08:59:29;;;;;;;16.88;7.88;;;;;;;;;;5079026;28;20020;-55
2023/12/10 09:01:55;;;;;;;22.75;9.10;;;;;;;;;;5090474;28;20023;-52
2023/12/10 09:04:21;;;;;;;28.90;8.48;;;;;;;;;;5090783;28;20028;-50
2023/12/10 09:06:47;;;;;;;11.13;6.43;;;;;;;;;;5081967;28;20024;-57
2023/12/10 09:09:13;;;;;;;19.35;9.60;;;;;;;;;;5070545;28;20032;-55
2023/12/10 09:11:39;;;;;;;15.57;6.55;;;;;;;;;;5069065;28;20090;-54
2023/12/10 09:14:07;;;;;;;10.90;6.30;;;;;;;;;;5070240;28;20028;-53
2023/12/10 09:16:33;;;;;;;14.27;7.82;;;;;;;;;;5089592;28;20020;-53
2023/12/10 09:18:59;;;;;;;12.35;7.18;;;;;;;;;;5092407;28;20031;-57
2023/12/10 09:21:25;;;;;;;13.32;6.50;;;;;;;;;;5091959;28;20047;-54
2023/12/10 09:23:51;;;;;;;12.73;6.47;;;;;;;;;;5090134;28;20482;-53
2023/12/10 09:26:19;;;;;;;13.65;6.03;;;;;;;;;;5090154;28;20056;-55
2023/12/10 09:28:45;;;;;;;19.52;7.88;;;;;;;;;;5089243;28;20020;-54
2023/12/10 09:31:11;;;;;;;13.43;7.05;;;;;;;;;;5090103;28;20028;-52
2023/12/10 09:33:37;;;;;;;16.90;7.80;;;;;;;;;;5069984;28;20047;-56
2023/12/10 09:36:03;;;;;;;27.83;8.43;;;;;;;;;;5070100;28;20091;-54
2023/12/10 09:38:29;;;;;;;18.77;8.68;;;;;;;;;;5068597;28;20358;-53
2023/12/10 09:40:56;;;;;;;12.35;6.20;;;;;;;;;;5069816;28;20111;-53
2023/12/10 09:43:22;;;;;;;12.80;7.15;;;;;;;;;;5070034;28;20052;-52
2023/12/10 09:45:49;;;;;;;11.90;7.25;;;;;;;;;;5070150;28;20028;-49
2023/12/10 09:48:16;;;;;;;14.93;7.30;;;;;;;;;;5068909;28;20036;-55
2023/12/10 09:50:42;;;;;;;18.17;6.78;;;;;;;;;;5069854;28;20028;-54
2023/12/10 09:53:08;;;;;;;19.42;7.28;;;;;;;;;;5069830;28;20293;-53
2023/12/10 09:55:35;;;;;;;11.50;5.82;;;;;;;;;;5068993;28;20032;-51
2023/12/10 09:58:01;;;;;;;9.98;5.70;;;;;;;;;;5070405;28;20490;-52
2023/12/10 10:00:28;;;;;;;14.35;6.55;;;;;;;;;;5073335;28;20596;-49
2023/12/10 10:03:01;;;;;;;17.35;7.32;;;;;;;;;;5073599;28;20033;-53
2023/12/10 10:05:27;;;;;;;11.82;6.55;;;;;;;;;;5073549;28;20035;-54
2023/12/10 10:07:53;;;;;;;9.20;5.40;;;;;;;;;;5072152;28;20025;-54
2023/12/10 10:10:25;;;;;;;17.02;7.95;;;;;;;;;;5073226;28;20028;-51
2023/12/10 10:15:27;;;;;;;12.45;6.72;;;;;;;;;;5070735;28;20144;-53
2023/12/10 10:17:54;;;;;;;18.52;8.18;;;;;;;;;;5071799;28;20546;-51
2023/12/10 10:20:21;;;;;;;14.73;6.75;;;;;;;;;;5053479;28;20032;-53
2023/12/10 10:22:48;;;;;;;18.60;7.22;;;;;;;;;;5071647;28;20036;-57
2023/12/10 10:25:14;;;;;;;14.13;7.00;;;;;;;;;;5053720;28;20028;-51
2023/12/10 10:27:40;;;;;;;18.92;6.95;;;;;;;;;;5053617;28;20562;-52
2023/12/10 10:30:07;;;;;;;12.23;6.80;;;;;;;;;;5071531;28;20112;-55
2023/12/10 10:32:33;;;;;;;14.77;6.13;;;;;;;;;;5071674;28;20096;-53
2023/12/10 10:35:01;;;;;;;18.75;8.27;;;;;;;;;;5071481;28;20035;-52
2023/12/10 10:37:27;;;;;;;12.02;6.35;;;;;;;;;;5071435;28;20020;-53
2023/12/10 10:39:53;;;;;;;16.45;6.10;;;;;;;;;;5071509;28;20027;-51
2023/12/10 10:42:19;;;;;;;10.43;5.68;;;;;;;;;;5071487;28;20494;-52
2023/12/10 10:44:46;;;;;;;12.73;6.05;;;;;;;;;;5053785;28;20501;-53
2023/12/10 10:47:12;;;;;;;10.77;5.63;;;;;;;;;;5071590;28;20107;-52
2023/12/10 10:49:41;;;;;;;9.13;5.32;;;;;;;;;;5071349;28;20056;-51
2023/12/10 10:52:07;;;;;;;;;;;;;;;;;;5053458;28;20516;-54
2023/12/10 10:54:34;;;;;;;10.73;6.25;;;;;;;;;;5064904;28;19904;-55
2023/12/10 10:57:00;;;;;;;13.57;5.97;;;;;;;;;;5065754;28;20559;-52
2023/12/10 10:59:30;;;;;;;10.52;5.40;;;;;;;;;;5068384;28;20035;-52
2023/12/10 11:02:00;;;;;;;12.95;6.10;;;;;;;;;;5069237;28;20048;-54
2023/12/10 11:04:33;;;;;;;14.93;6.10;;;;;;;;;;5071305;28;20032;-52
2023/12/10 11:07:00;;;;;;;10.68;6.32;;;;;;;;;;5070970;28;20082;-50
2023/12/10 11:09:28;;;;;;;11.80;5.88;;;;;;;;;;5070070;28;20031;-57
2023/12/10 11:11:54;;;;;;;18.73;6.65;;;;;;;;;;5070378;28;20023;-53
2023/12/10 11:14:21;;;;;;;11.50;6.28;;;;;;;;;;5070602;28;20097;-54
2023/12/10 11:16:50;;;;;;;10.70;5.82;;;;;;;;;;5070329;28;20025;-53
2023/12/10 11:19:18;;;;;;;15.13;6.68;;;;;;;;;;5070489;28;20032;-54
2023/12/10 11:21:44;;;;;;;13.07;6.88;;;;;;;;;;5070682;28;20021;-51
2023/12/10 11:24:10;;;;;;;10.30;6.00;;;;;;;;;;5071065;28;20276;-50
2023/12/10 11:26:36;;;;;;;14.80;7.80;;;;;;;;;;5071216;28;20016;-54
2023/12/10 11:29:02;;;;;;;13.70;7.45;;;;;;;;;;5070603;28;20040;-52
2023/12/10 11:31:28;;;;;;;15.35;8.38;;;;;;;;;;5070168;28;20383;-54
2023/12/10 11:33:54;;;;;;;11.98;6.20;;;;;;;;;;5070424;28;20032;-53
2023/12/10 11:36:20;;;;;;;16.77;6.95;;;;;;;;;;5070638;28;20284;-51
2023/12/10 11:38:47;;;;;;;12.50;7.03;;;;;;;;;;5052586;28;20056;-54
2023/12/10 11:41:13;;;;;;;10.15;6.20;;;;;;;;;;5052519;28;20037;-54
2023/12/10 11:43:42;;;;;;;17.00;6.45;;;;;;;;;;5070796;28;20024;-57
2023/12/10 11:46:07;;;;;;;;;;;;;;;;;;5070866;28;20067;-53
2023/12/10 11:48:34;;;;;;;10.05;5.90;;;;;;;;;;5070444;28;20338;-53
2023/12/10 11:51:00;;;;;;;10.68;6.32;;;;;;;;;;5069886;28;20029;-52
2023/12/10 11:53:26;;;;;;;14.10;7.10;;;;;;;;;;5070155;28;20024;-54
2023/12/10 11:55:52;;;;;;;10.20;6.00;;;;;;;;;;5070150;28;20028;-52
2023/12/10 11:58:26;;;;;;;12.30;6.70;;;;;;;;;;5070009;28;20454;-53
2023/12/10 12:00:58;;;;;;;10.85;6.10;;;;;;;;;;5069583;28;20031;-51
2023/12/10 12:03:24;;;;;;;15.27;8.90;;;;;;;;;;5067510;28;20021;-54
2023/12/10 12:05:51;;;;;;;10.50;5.95;;;;;;;;;;5066081;28;20027;-56
2023/12/10 12:08:17;;;;;;;9.13;5.35;;;;;;;;;;5069186;28;20076;-56
2023/12/10 12:10:43;;;;;;;14.30;6.45;;;;;;;;;;5068409;28;20492;-55
2023/12/10 12:13:09;;;;;;;12.52;6.88;;;;;;;;;;5069088;28;20056;-54
2023/12/10 12:15:36;;;;;;;13.23;6.90;;;;;;;;;;5069187;28;20044;-55
2023/12/10 12:18:03;;;;;;;14.07;7.20;;;;;;;;;;5047986;28;20391;-56
2023/12/10 12:20:29;;;;;;;10.77;6.00;;;;;;;;;;5043693;28;20078;-53
2023/12/10 12:22:55;;;;;;;10.98;6.28;;;;;;;;;;5050931;28;20454;-55
2023/12/10 12:25:21;;;;;;;12.35;6.40;;;;;;;;;;5069144;28;20052;-54
2023/12/10 12:27:48;;;;;;;12.65;7.88;;;;;;;;;;5069237;28;20103;-57
2023/12/10 12:30:15;;;;;;;8.98;5.30;;;;;;;;;;5065742;28;20029;-52
2023/12/10 12:32:41;;;;;;;8.80;5.20;;;;;;;;;;5063446;28;20020;-54
2023/12/10 12:35:07;;;;;;;12.50;5.57;;;;;;;;;;5059021;28;20021;-58
2023/12/10 12:37:33;;;;;;;10.90;6.15;;;;;;;;;;5068936;28;20021;-56
2023/12/10 12:39:59;;;;;;;12.00;6.70;;;;;;;;;;5069141;28;20033;-54
2023/12/10 12:42:25;;;;;;;24.38;7.78;;;;;;;;;;5068793;28;20032;-56
2023/12/10 12:44:52;;;;;;;11.80;6.75;;;;;;;;;;5068682;28;20400;-58
2023/12/10 12:47:19;;;;;;;10.82;6.18;;;;;;;;;;5068538;28;20506;-56
2023/12/10 12:49:45;;;;;;;15.77;7.57;;;;;;;;;;5068600;28;20028;-56
2023/12/10 12:52:11;;;;;;;9.95;5.55;;;;;;;;;;5068527;28;20027;-55
2023/12/10 12:54:37;;;;;;;29.50;7.82;;;;;;;;;;5068826;28;20433;-55
2023/12/10 12:57:03;;;;;;;11.82;6.78;;;;;;;;;;5068812;28;20024;-53
2023/12/10 12:59:29;;;;;;;14.70;10.27;;;;;;;;;;5068882;28;20509;-54
2023/12/10 13:01:55;;;;;;;11.57;6.63;;;;;;;;;;5069169;28;20017;-53
2023/12/10 13:04:22;;;;;;;14.82;7.60;;;;;;;;;;5068782;28;20110;-54
2023/12/10 13:06:47;;;;;;;10.98;6.32;;;;;;;;;;5068685;28;20020;-55
2023/12/10 13:09:14;;;;;;;13.32;6.82;;;;;;;;;;5050830;28;20136;-54
2023/12/10 13:11:40;;;;;;;13.88;7.75;;;;;;;;;;5062658;28;20503;-55
2023/12/10 13:14:06;;;;;;;29.60;10.13;;;;;;;;;;5064830;28;20080;-52
2023/12/10 13:16:32;;;;;;;16.00;7.63;;;;;;;;;;5061442;28;20497;-54
2023/12/10 13:18:58;;;;;;;11.20;6.60;;;;;;;;;;5065646;28;20020;-56
2023/12/10 13:21:24;;;;;;;12.57;6.65;;;;;;;;;;5048833;28;20472;-56
2023/12/10 13:23:51;;;;;;;11.75;6.93;;;;;;;;;;5058315;28;20029;-57
2023/12/10 13:26:17;;;;;;;11.43;7.03;;;;;;;;;;5060788;28;20112;-51
2023/12/10 13:28:43;;;;;;;10.60;6.38;;;;;;;;;;5044372;28;20429;-56
2023/12/10 13:31:10;;;;;;;10.57;6.70;;;;;;;;;;5058956;28;20028;-52
2023/12/10 13:33:36;;;;;;;11.93;7.22;;;;;;;;;;5061546;28;20020;-57
2023/12/10 13:36:02;;;;;;;17.52;7.35;;;;;;;;;;5065314;28;20035;-56
2023/12/10 13:38:28;;;;;;;13.38;7.38;;;;;;;;;;5069263;28;20060;-55
2023/12/10 13:40:56;;;;;;;14.10;7.57;;;;;;;;;;5051393;28;20668;-53
2023/12/10 13:43:22;;;;;;;10.43;6.17;;;;;;;;;;5071284;28;20028;-52
2023/12/10 13:45:48;;;;;;;12.52;7.03;;;;;;;;;;5069580;28;20271;-50
2023/12/10 13:48:14;;;;;;;21.95;9.30;;;;;;;;;;5072521;28;20074;-55
2023/12/10 13:50:41;;;;;;;14.60;7.78;;;;;;;;;;5071186;28;20021;-53
2023/12/10 13:53:07;;;;;;;14.27;6.60;;;;;;;;;;5069345;28;20045;-55
2023/12/10 13:55:33;;;;;;;10.30;6.00;;;;;;;;;;5068476;28;20407;-57
2023/12/10 13:57:59;;;;;;;19.13;7.68;;;;;;;;;;5068323;28;20382;-56
2023/12/10 14:00:25;;;;;;;14.32;9.25;;;;;;;;;;5067794;28;20025;-54
2023/12/10 14:02:51;;;;;;;11.23;6.00;;;;;;;;;;5068556;28;20021;-54
2023/12/10 14:05:17;;;;;;;11.15;7.95;;;;;;;;;;5049962;28;20035;-56
2023/12/10 14:07:48;;;;;;;9.90;5.80;;;;;;;;;;5067878;28;20083;-57
2023/12/10 14:10:14;;;;;;;11.30;6.22;;;;;;;;;;5067637;28;20029;-54
2023/12/10 14:12:40;;;;;;;21.25;6.90;;;;;;;;;;5068122;28;20016;-50
2023/12/10 14:15:07;;;;;;;10.32;5.93;;;;;;;;;;5067573;28;20196;-57
2023/12/10 14:17:33;;;;;;;12.77;7.65;;;;;;;;;;5067573;28;20024;-57
2023/12/10 14:19:59;;;;;;;10.40;6.03;;;;;;;;;;5067759;28;20060;-54
2023/12/10 14:22:25;;;;;;;11.15;6.47;;;;;;;;;;5067556;28;20474;-54